sensor_id;sensor_type;location;lat;lon;timestamp;P1;durP1;ratioP1;P2;durP2;ratioP2
51654;SDS011;37732;53.106;7.030;2023-07-13T00:00:34;7.07;;;3.67;;
51654;SDS011;37732;53.106;7.030;2023-07-13T00:03:01;8.55;;;5.35;;
51654;SDS011;37732;53.106;7.030;2023-07-13T00:05:27;8.13;;;4.57;;
51654;SDS011;37732;53.106;7.030;2023-07-13T00:07:53;11.73;;;4.60;;
51654;SDS011;37732;53.106;7.030;2023-07-13T00:10:20;8.77;;;4.15;;
51654;SDS011;37732;53.106;7.030;2023-07-13T00:12:47;7.15;;;3.88;;
51654;SDS011;37732;53.106;7.030;2023-07-13T00:15:14;8.43;;;3.80;;
51654;SDS011;37732;53.106;7.030;2023-07-13T00:17:42;7.97;;;3.20;;
51654;SDS011;37732;53.106;7.030;2023-07-13T00:20:11;8.45;;;3.80;;
51654;SDS011;37732;53.106;7.030;2023-07-13T00:22:37;10.52;;;4.43;;
51654;SDS011;37732;53.106;7.030;2023-07-13T00:25:04;9.23;;;4.00;;
51654;SDS011;37732;53.106;7.030;2023-07-13T00:27:30;8.73;;;4.65;;
51654;SDS011;37732;53.106;7.030;2023-07-13T00:29:57;6.35;;;4.18;;
51654;SDS011;37732;53.106;7.030;2023-07-13T00:32:23;10.73;;;4.10;;
51654;SDS011;37732;53.106;7.030;2023-07-13T00:34:51;8.60;;;3.85;;
51654;SDS011;37732;53.106;7.030;2023-07-13T00:37:17;6.70;;;3.47;;
51654;SDS011;37732;53.106;7.030;2023-07-13T00:39:43;9.35;;;3.72;;
51654;SDS011;37732;53.106;7.030;2023-07-13T00:42:09;7.97;;;3.67;;
51654;SDS011;37732;53.106;7.030;2023-07-13T00:44:36;8.23;;;4.60;;
51654;SDS011;37732;53.106;7.030;2023-07-13T00:47:04;12.77;;;3.95;;
51654;SDS011;37732;53.106;7.030;2023-07-13T00:49:30;12.07;;;3.90;;
51654;SDS011;37732;53.106;7.030;2023-07-13T00:52:04;13.77;;;4.80;;
51654;SDS011;37732;53.106;7.030;2023-07-13T00:54:34;11.30;;;4.07;;
51654;SDS011;37732;53.106;7.030;2023-07-13T00:57:09;7.60;;;4.03;;
51654;SDS011;37732;53.106;7.030;2023-07-13T00:59:38;9.10;;;3.67;;
51654;SDS011;37732;53.106;7.030;2023-07-13T01:02:07;8.35;;;4.22;;
51654;SDS011;37732;53.106;7.030;2023-07-13T01:04:33;17.80;;;4.72;;
51654;SDS011;37732;53.106;7.030;2023-07-13T01:07:14;10.02;;;4.03;;
51654;SDS011;37732;53.106;7.030;2023-07-13T01:09:40;11.00;;;4.55;;
51654;SDS011;37732;53.106;7.030;2023-07-13T01:12:06;9.30;;;3.55;;
51654;SDS011;37732;53.106;7.030;2023-07-13T01:14:32;10.45;;;3.85;;
51654;SDS011;37732;53.106;7.030;2023-07-13T01:16:58;10.43;;;3.92;;
51654;SDS011;37732;53.106;7.030;2023-07-13T01:22:23;10.63;;;4.03;;
51654;SDS011;37732;53.106;7.030;2023-07-13T01:24:52;11.00;;;4.40;;
51654;SDS011;37732;53.106;7.030;2023-07-13T01:27:22;13.15;;;3.90;;
51654;SDS011;37732;53.106;7.030;2023-07-13T01:29:50;12.23;;;4.43;;
51654;SDS011;37732;53.106;7.030;2023-07-13T01:32:18;9.38;;;4.70;;
51654;SDS011;37732;53.106;7.030;2023-07-13T01:34:46;10.25;;;4.45;;
51654;SDS011;37732;53.106;7.030;2023-07-13T01:37:12;9.35;;;3.80;;
51654;SDS011;37732;53.106;7.030;2023-07-13T01:39:38;8.98;;;4.15;;
51654;SDS011;37732;53.106;7.030;2023-07-13T01:42:04;10.70;;;4.03;;
51654;SDS011;37732;53.106;7.030;2023-07-13T01:44:30;12.00;;;4.85;;
51654;SDS011;37732;53.106;7.030;2023-07-13T01:46:57;12.77;;;5.25;;
51654;SDS011;37732;53.106;7.030;2023-07-13T01:49:23;15.02;;;4.90;;
51654;SDS011;37732;53.106;7.030;2023-07-13T01:51:48;9.80;;;3.88;;
51654;SDS011;37732;53.106;7.030;2023-07-13T01:54:14;11.27;;;4.40;;
51654;SDS011;37732;53.106;7.030;2023-07-13T01:56:40;13.48;;;4.68;;
51654;SDS011;37732;53.106;7.030;2023-07-13T01:59:07;15.25;;;5.25;;
51654;SDS011;37732;53.106;7.030;2023-07-13T02:01:33;10.88;;;4.07;;
51654;SDS011;37732;53.106;7.030;2023-07-13T02:03:59;11.65;;;4.07;;
51654;SDS011;37732;53.106;7.030;2023-07-13T02:06:25;8.73;;;3.90;;
51654;SDS011;37732;53.106;7.030;2023-07-13T02:08:51;9.60;;;4.30;;
51654;SDS011;37732;53.106;7.030;2023-07-13T02:11:17;14.98;;;4.78;;
51654;SDS011;37732;53.106;7.030;2023-07-13T02:13:42;12.90;;;4.53;;
51654;SDS011;37732;53.106;7.030;2023-07-13T02:16:08;11.80;;;4.18;;
51654;SDS011;37732;53.106;7.030;2023-07-13T02:18:34;12.07;;;4.75;;
51654;SDS011;37732;53.106;7.030;2023-07-13T02:21:00;11.00;;;4.20;;
51654;SDS011;37732;53.106;7.030;2023-07-13T02:23:28;13.85;;;4.97;;
51654;SDS011;37732;53.106;7.030;2023-07-13T02:25:58;12.75;;;4.20;;
51654;SDS011;37732;53.106;7.030;2023-07-13T02:28:27;11.93;;;4.40;;
51654;SDS011;37732;53.106;7.030;2023-07-13T02:30:53;11.77;;;4.97;;
51654;SDS011;37732;53.106;7.030;2023-07-13T02:33:19;11.73;;;4.25;;
51654;SDS011;37732;53.106;7.030;2023-07-13T02:35:45;10.82;;;4.05;;
51654;SDS011;37732;53.106;7.030;2023-07-13T02:38:11;12.88;;;4.47;;
51654;SDS011;37732;53.106;7.030;2023-07-13T02:40:36;9.95;;;5.20;;
51654;SDS011;37732;53.106;7.030;2023-07-13T02:43:03;10.95;;;4.68;;
51654;SDS011;37732;53.106;7.030;2023-07-13T02:45:29;11.85;;;5.15;;
51654;SDS011;37732;53.106;7.030;2023-07-13T02:47:55;11.13;;;4.75;;
51654;SDS011;37732;53.106;7.030;2023-07-13T02:50:21;12.82;;;5.10;;
51654;SDS011;37732;53.106;7.030;2023-07-13T02:52:46;11.23;;;4.43;;
51654;SDS011;37732;53.106;7.030;2023-07-13T02:55:12;10.70;;;5.10;;
51654;SDS011;37732;53.106;7.030;2023-07-13T02:57:38;15.48;;;5.15;;
51654;SDS011;37732;53.106;7.030;2023-07-13T03:00:04;11.45;;;4.75;;
51654;SDS011;37732;53.106;7.030;2023-07-13T03:02:31;13.07;;;5.25;;
51654;SDS011;37732;53.106;7.030;2023-07-13T03:04:58;12.63;;;4.63;;
51654;SDS011;37732;53.106;7.030;2023-07-13T03:07:24;9.73;;;4.60;;
51654;SDS011;37732;53.106;7.030;2023-07-13T03:09:57;11.25;;;5.68;;
51654;SDS011;37732;53.106;7.030;2023-07-13T03:12:23;13.73;;;5.30;;
51654;SDS011;37732;53.106;7.030;2023-07-13T03:14:49;11.20;;;5.07;;
51654;SDS011;37732;53.106;7.030;2023-07-13T03:17:15;11.88;;;4.93;;
51654;SDS011;37732;53.106;7.030;2023-07-13T03:19:41;12.23;;;5.45;;
51654;SDS011;37732;53.106;7.030;2023-07-13T03:22:07;15.48;;;5.22;;
51654;SDS011;37732;53.106;7.030;2023-07-13T03:24:33;13.40;;;5.13;;
51654;SDS011;37732;53.106;7.030;2023-07-13T03:27:01;15.77;;;5.63;;
51654;SDS011;37732;53.106;7.030;2023-07-13T03:29:27;12.10;;;5.00;;
51654;SDS011;37732;53.106;7.030;2023-07-13T03:31:53;16.83;;;6.05;;
51654;SDS011;37732;53.106;7.030;2023-07-13T03:34:18;13.77;;;5.60;;
51654;SDS011;37732;53.106;7.030;2023-07-13T03:36:44;15.30;;;5.47;;
51654;SDS011;37732;53.106;7.030;2023-07-13T03:39:10;16.08;;;5.32;;
51654;SDS011;37732;53.106;7.030;2023-07-13T03:41:36;13.93;;;4.82;;
51654;SDS011;37732;53.106;7.030;2023-07-13T03:44:02;16.23;;;5.35;;
51654;SDS011;37732;53.106;7.030;2023-07-13T03:46:28;13.02;;;5.68;;
51654;SDS011;37732;53.106;7.030;2023-07-13T03:48:54;14.95;;;5.93;;
51654;SDS011;37732;53.106;7.030;2023-07-13T03:51:20;13.43;;;4.93;;
51654;SDS011;37732;53.106;7.030;2023-07-13T03:53:47;12.45;;;4.88;;
51654;SDS011;37732;53.106;7.030;2023-07-13T03:56:13;18.58;;;4.95;;
51654;SDS011;37732;53.106;7.030;2023-07-13T03:58:40;13.32;;;5.45;;
51654;SDS011;37732;53.106;7.030;2023-07-13T04:01:09;20.33;;;5.78;;
51654;SDS011;37732;53.106;7.030;2023-07-13T04:03:36;13.43;;;5.22;;
51654;SDS011;37732;53.106;7.030;2023-07-13T04:06:02;14.18;;;4.55;;
51654;SDS011;37732;53.106;7.030;2023-07-13T04:08:31;11.38;;;4.30;;
51654;SDS011;37732;53.106;7.030;2023-07-13T04:10:58;11.30;;;4.43;;
51654;SDS011;37732;53.106;7.030;2023-07-13T04:13:25;13.73;;;4.97;;
51654;SDS011;37732;53.106;7.030;2023-07-13T04:15:52;19.05;;;5.95;;
51654;SDS011;37732;53.106;7.030;2023-07-13T04:18:18;12.07;;;5.15;;
51654;SDS011;37732;53.106;7.030;2023-07-13T04:20:46;16.33;;;5.18;;
51654;SDS011;37732;53.106;7.030;2023-07-13T04:23:12;12.77;;;5.03;;
51654;SDS011;37732;53.106;7.030;2023-07-13T04:25:38;12.55;;;5.50;;
51654;SDS011;37732;53.106;7.030;2023-07-13T04:28:04;12.80;;;5.13;;
51654;SDS011;37732;53.106;7.030;2023-07-13T04:30:30;14.95;;;6.43;;
51654;SDS011;37732;53.106;7.030;2023-07-13T04:32:56;16.40;;;4.93;;
51654;SDS011;37732;53.106;7.030;2023-07-13T04:35:21;14.13;;;5.82;;
51654;SDS011;37732;53.106;7.030;2023-07-13T04:37:48;11.95;;;5.57;;
51654;SDS011;37732;53.106;7.030;2023-07-13T04:40:15;15.43;;;5.07;;
51654;SDS011;37732;53.106;7.030;2023-07-13T04:42:42;17.23;;;6.95;;
51654;SDS011;37732;53.106;7.030;2023-07-13T04:45:08;14.68;;;5.57;;
51654;SDS011;37732;53.106;7.030;2023-07-13T04:47:34;15.93;;;5.72;;
51654;SDS011;37732;53.106;7.030;2023-07-13T04:50:00;15.85;;;5.30;;
51654;SDS011;37732;53.106;7.030;2023-07-13T04:52:25;16.63;;;5.68;;
51654;SDS011;37732;53.106;7.030;2023-07-13T04:54:51;14.73;;;6.28;;
51654;SDS011;37732;53.106;7.030;2023-07-13T04:57:17;12.63;;;5.63;;
51654;SDS011;37732;53.106;7.030;2023-07-13T04:59:42;13.13;;;5.32;;
51654;SDS011;37732;53.106;7.030;2023-07-13T05:02:08;14.95;;;5.80;;
51654;SDS011;37732;53.106;7.030;2023-07-13T05:04:35;15.85;;;6.13;;
51654;SDS011;37732;53.106;7.030;2023-07-13T05:07:00;12.80;;;5.88;;
51654;SDS011;37732;53.106;7.030;2023-07-13T05:09:26;13.27;;;5.95;;
51654;SDS011;37732;53.106;7.030;2023-07-13T05:11:52;13.15;;;5.28;;
51654;SDS011;37732;53.106;7.030;2023-07-13T05:14:17;15.35;;;5.65;;
51654;SDS011;37732;53.106;7.030;2023-07-13T05:16:43;12.27;;;6.55;;
51654;SDS011;37732;53.106;7.030;2023-07-13T05:19:09;12.93;;;5.68;;
51654;SDS011;37732;53.106;7.030;2023-07-13T05:21:35;17.45;;;5.80;;
51654;SDS011;37732;53.106;7.030;2023-07-13T05:24:01;11.32;;;5.75;;
51654;SDS011;37732;53.106;7.030;2023-07-13T05:26:27;10.65;;;5.97;;
51654;SDS011;37732;53.106;7.030;2023-07-13T05:28:52;11.15;;;5.80;;
51654;SDS011;37732;53.106;7.030;2023-07-13T05:31:18;13.38;;;6.78;;
51654;SDS011;37732;53.106;7.030;2023-07-13T05:33:44;14.48;;;6.13;;
51654;SDS011;37732;53.106;7.030;2023-07-13T05:36:10;11.63;;;5.68;;
51654;SDS011;37732;53.106;7.030;2023-07-13T05:38:35;13.85;;;6.75;;
51654;SDS011;37732;53.106;7.030;2023-07-13T05:41:01;12.60;;;6.07;;
51654;SDS011;37732;53.106;7.030;2023-07-13T05:43:27;12.93;;;6.32;;
51654;SDS011;37732;53.106;7.030;2023-07-13T05:45:53;12.00;;;6.03;;
51654;SDS011;37732;53.106;7.030;2023-07-13T05:48:20;15.13;;;6.07;;
51654;SDS011;37732;53.106;7.030;2023-07-13T05:50:46;12.32;;;5.63;;
51654;SDS011;37732;53.106;7.030;2023-07-13T05:53:12;16.45;;;6.60;;
51654;SDS011;37732;53.106;7.030;2023-07-13T05:55:42;13.43;;;6.07;;
51654;SDS011;37732;53.106;7.030;2023-07-13T05:58:08;11.13;;;4.82;;
51654;SDS011;37732;53.106;7.030;2023-07-13T06:00:35;11.68;;;5.57;;
51654;SDS011;37732;53.106;7.030;2023-07-13T06:03:00;11.32;;;5.05;;
51654;SDS011;37732;53.106;7.030;2023-07-13T06:05:26;13.50;;;5.85;;
51654;SDS011;37732;53.106;7.030;2023-07-13T06:07:54;13.23;;;4.68;;
51654;SDS011;37732;53.106;7.030;2023-07-13T06:10:21;9.15;;;4.80;;
51654;SDS011;37732;53.106;7.030;2023-07-13T06:12:46;12.75;;;5.18;;
51654;SDS011;37732;53.106;7.030;2023-07-13T06:15:12;13.00;;;5.18;;
51654;SDS011;37732;53.106;7.030;2023-07-13T06:17:38;11.07;;;5.60;;
51654;SDS011;37732;53.106;7.030;2023-07-13T06:20:04;11.98;;;4.95;;
51654;SDS011;37732;53.106;7.030;2023-07-13T06:22:30;12.32;;;5.45;;
51654;SDS011;37732;53.106;7.030;2023-07-13T06:24:56;10.35;;;4.70;;
51654;SDS011;37732;53.106;7.030;2023-07-13T06:27:22;10.85;;;4.97;;
51654;SDS011;37732;53.106;7.030;2023-07-13T06:29:48;10.90;;;4.38;;
51654;SDS011;37732;53.106;7.030;2023-07-13T06:32:14;13.38;;;4.88;;
51654;SDS011;37732;53.106;7.030;2023-07-13T06:34:39;8.25;;;4.38;;
51654;SDS011;37732;53.106;7.030;2023-07-13T06:37:05;11.07;;;6.03;;
51654;SDS011;37732;53.106;7.030;2023-07-13T06:39:32;14.13;;;5.20;;
51654;SDS011;37732;53.106;7.030;2023-07-13T06:41:57;12.13;;;4.00;;
51654;SDS011;37732;53.106;7.030;2023-07-13T06:44:23;16.58;;;5.45;;
51654;SDS011;37732;53.106;7.030;2023-07-13T06:46:49;10.35;;;4.20;;
51654;SDS011;37732;53.106;7.030;2023-07-13T06:49:14;10.68;;;4.53;;
51654;SDS011;37732;53.106;7.030;2023-07-13T06:51:40;11.23;;;4.45;;
51654;SDS011;37732;53.106;7.030;2023-07-13T06:54:06;11.07;;;4.80;;
51654;SDS011;37732;53.106;7.030;2023-07-13T06:56:31;10.52;;;3.95;;
51654;SDS011;37732;53.106;7.030;2023-07-13T06:58:57;8.40;;;4.00;;
51654;SDS011;37732;53.106;7.030;2023-07-13T07:01:23;8.50;;;4.45;;
51654;SDS011;37732;53.106;7.030;2023-07-13T07:03:49;8.98;;;4.03;;
51654;SDS011;37732;53.106;7.030;2023-07-13T07:06:20;13.65;;;4.13;;
51654;SDS011;37732;53.106;7.030;2023-07-13T07:08:48;8.18;;;3.63;;
51654;SDS011;37732;53.106;7.030;2023-07-13T07:11:19;10.48;;;4.30;;
51654;SDS011;37732;53.106;7.030;2023-07-13T07:13:47;8.52;;;3.17;;
51654;SDS011;37732;53.106;7.030;2023-07-13T07:16:14;10.40;;;3.17;;
51654;SDS011;37732;53.106;7.030;2023-07-13T07:18:40;10.18;;;3.75;;
51654;SDS011;37732;53.106;7.030;2023-07-13T07:21:05;9.27;;;3.45;;
51654;SDS011;37732;53.106;7.030;2023-07-13T07:23:31;7.72;;;3.70;;
51654;SDS011;37732;53.106;7.030;2023-07-13T07:25:57;10.65;;;3.80;;
51654;SDS011;37732;53.106;7.030;2023-07-13T07:28:23;10.30;;;3.60;;
51654;SDS011;37732;53.106;7.030;2023-07-13T07:30:51;10.07;;;3.60;;
51654;SDS011;37732;53.106;7.030;2023-07-13T07:33:18;9.73;;;3.70;;
51654;SDS011;37732;53.106;7.030;2023-07-13T07:35:44;9.60;;;4.00;;
51654;SDS011;37732;53.106;7.030;2023-07-13T07:38:09;8.82;;;4.15;;
51654;SDS011;37732;53.106;7.030;2023-07-13T07:40:39;9.73;;;3.78;;
51654;SDS011;37732;53.106;7.030;2023-07-13T07:43:06;8.93;;;3.17;;
51654;SDS011;37732;53.106;7.030;2023-07-13T07:45:36;9.68;;;3.75;;
51654;SDS011;37732;53.106;7.030;2023-07-13T07:48:03;5.18;;;3.15;;
51654;SDS011;37732;53.106;7.030;2023-07-13T07:50:29;7.72;;;3.33;;
51654;SDS011;37732;53.106;7.030;2023-07-13T07:52:56;8.57;;;3.15;;
51654;SDS011;37732;53.106;7.030;2023-07-13T07:55:22;7.97;;;3.47;;
51654;SDS011;37732;53.106;7.030;2023-07-13T07:57:47;7.10;;;3.80;;
51654;SDS011;37732;53.106;7.030;2023-07-13T08:00:14;6.07;;;3.00;;
51654;SDS011;37732;53.106;7.030;2023-07-13T08:02:40;8.80;;;3.38;;
51654;SDS011;37732;53.106;7.030;2023-07-13T08:05:07;7.18;;;3.00;;
51654;SDS011;37732;53.106;7.030;2023-07-13T08:07:33;8.45;;;3.40;;
51654;SDS011;37732;53.106;7.030;2023-07-13T08:10:00;6.68;;;3.47;;
51654;SDS011;37732;53.106;7.030;2023-07-13T08:12:25;6.47;;;3.38;;
51654;SDS011;37732;53.106;7.030;2023-07-13T08:14:51;7.95;;;3.70;;
51654;SDS011;37732;53.106;7.030;2023-07-13T08:17:19;8.10;;;3.17;;
51654;SDS011;37732;53.106;7.030;2023-07-13T08:19:45;7.57;;;3.10;;
51654;SDS011;37732;53.106;7.030;2023-07-13T08:22:11;7.07;;;3.33;;
51654;SDS011;37732;53.106;7.030;2023-07-13T08:24:38;8.35;;;3.33;;
51654;SDS011;37732;53.106;7.030;2023-07-13T08:27:04;5.75;;;3.55;;
51654;SDS011;37732;53.106;7.030;2023-07-13T08:29:30;8.00;;;3.55;;
51654;SDS011;37732;53.106;7.030;2023-07-13T08:31:58;10.25;;;4.07;;
51654;SDS011;37732;53.106;7.030;2023-07-13T08:34:24;11.95;;;4.35;;
51654;SDS011;37732;53.106;7.030;2023-07-13T08:36:50;11.38;;;5.28;;
51654;SDS011;37732;53.106;7.030;2023-07-13T08:39:15;8.63;;;4.35;;
51654;SDS011;37732;53.106;7.030;2023-07-13T08:41:41;10.57;;;4.97;;
51654;SDS011;37732;53.106;7.030;2023-07-13T08:44:18;11.98;;;4.57;;
51654;SDS011;37732;53.106;7.030;2023-07-13T08:47:08;10.32;;;5.00;;
51654;SDS011;37732;53.106;7.030;2023-07-13T08:49:37;8.10;;;4.22;;
51654;SDS011;37732;53.106;7.030;2023-07-13T08:54:48;8.25;;;4.55;;
51654;SDS011;37732;53.106;7.030;2023-07-13T08:57:17;8.13;;;4.10;;
51654;SDS011;37732;53.106;7.030;2023-07-13T08:59:45;11.13;;;3.90;;
51654;SDS011;37732;53.106;7.030;2023-07-13T09:07:19;7.50;;;4.27;;
51654;SDS011;37732;53.106;7.030;2023-07-13T09:12:22;10.85;;;4.80;;
51654;SDS011;37732;53.106;7.030;2023-07-13T09:14:51;14.25;;;5.55;;
51654;SDS011;37732;53.106;7.030;2023-07-13T09:17:26;11.07;;;6.03;;
51654;SDS011;37732;53.106;7.030;2023-07-13T09:19:54;8.57;;;5.50;;
51654;SDS011;37732;53.106;7.030;2023-07-13T09:22:22;7.80;;;3.03;;
51654;SDS011;37732;53.106;7.030;2023-07-13T09:25:03;6.38;;;3.38;;
51654;SDS011;37732;53.106;7.030;2023-07-13T09:27:42;3.47;;;1.92;;
51654;SDS011;37732;53.106;7.030;2023-07-13T09:30:17;3.72;;;1.70;;
51654;SDS011;37732;53.106;7.030;2023-07-13T09:32:49;4.10;;;2.00;;
51654;SDS011;37732;53.106;7.030;2023-07-13T09:35:18;5.00;;;2.17;;
51654;SDS011;37732;53.106;7.030;2023-07-13T09:37:45;4.13;;;2.10;;
51654;SDS011;37732;53.106;7.030;2023-07-13T09:40:22;3.13;;;2.00;;
51654;SDS011;37732;53.106;7.030;2023-07-13T09:42:52;5.18;;;1.98;;
51654;SDS011;37732;53.106;7.030;2023-07-13T09:45:29;7.30;;;2.63;;
51654;SDS011;37732;53.106;7.030;2023-07-13T09:47:59;5.70;;;3.00;;
51654;SDS011;37732;53.106;7.030;2023-07-13T09:50:29;6.03;;;2.92;;
51654;SDS011;37732;53.106;7.030;2023-07-13T09:52:55;8.23;;;3.78;;
51654;SDS011;37732;53.106;7.030;2023-07-13T09:55:31;6.38;;;3.95;;
51654;SDS011;37732;53.106;7.030;2023-07-13T09:58:03;5.60;;;3.97;;
51654;SDS011;37732;53.106;7.030;2023-07-13T10:00:30;6.60;;;3.70;;
51654;SDS011;37732;53.106;7.030;2023-07-13T10:03:01;8.18;;;4.05;;
51654;SDS011;37732;53.106;7.030;2023-07-13T10:05:28;7.35;;;3.90;;
51654;SDS011;37732;53.106;7.030;2023-07-13T10:08:02;6.43;;;3.80;;
51654;SDS011;37732;53.106;7.030;2023-07-13T10:10:31;6.15;;;3.65;;
51654;SDS011;37732;53.106;7.030;2023-07-13T10:12:57;6.57;;;4.63;;
51654;SDS011;37732;53.106;7.030;2023-07-13T10:15:25;8.05;;;5.25;;
51654;SDS011;37732;53.106;7.030;2023-07-13T10:17:53;10.32;;;5.15;;
51654;SDS011;37732;53.106;7.030;2023-07-13T10:20:20;10.88;;;6.03;;
51654;SDS011;37732;53.106;7.030;2023-07-13T10:23:09;10.57;;;5.57;;
51654;SDS011;37732;53.106;7.030;2023-07-13T10:25:33;9.32;;;5.05;;
51654;SDS011;37732;53.106;7.030;2023-07-13T10:28:24;7.18;;;5.72;;
51654;SDS011;37732;53.106;7.030;2023-07-13T10:30:50;6.75;;;4.00;;
51654;SDS011;37732;53.106;7.030;2023-07-13T10:33:18;7.30;;;3.90;;
51654;SDS011;37732;53.106;7.030;2023-07-13T10:35:44;6.30;;;4.05;;
51654;SDS011;37732;53.106;7.030;2023-07-13T10:38:15;7.05;;;4.10;;
51654;SDS011;37732;53.106;7.030;2023-07-13T10:43:18;6.20;;;4.10;;
51654;SDS011;37732;53.106;7.030;2023-07-13T10:45:45;8.65;;;4.75;;
51654;SDS011;37732;53.106;7.030;2023-07-13T10:48:15;5.38;;;3.60;;
51654;SDS011;37732;53.106;7.030;2023-07-13T10:50:42;6.93;;;4.03;;
51654;SDS011;37732;53.106;7.030;2023-07-13T10:53:19;6.13;;;3.78;;
51654;SDS011;37732;53.106;7.030;2023-07-13T10:58:13;7.38;;;4.30;;
51654;SDS011;37732;53.106;7.030;2023-07-13T11:00:44;5.82;;;3.85;;
51654;SDS011;37732;53.106;7.030;2023-07-13T11:03:13;4.70;;;3.33;;
51654;SDS011;37732;53.106;7.030;2023-07-13T11:05:40;7.75;;;4.43;;
51654;SDS011;37732;53.106;7.030;2023-07-13T11:10:47;5.68;;;3.10;;
51654;SDS011;37732;53.106;7.030;2023-07-13T11:16:01;6.80;;;3.15;;
51654;SDS011;37732;53.106;7.030;2023-07-13T11:18:37;6.20;;;3.53;;
51654;SDS011;37732;53.106;7.030;2023-07-13T11:21:14;3.63;;;2.42;;
51654;SDS011;37732;53.106;7.030;2023-07-13T11:23:42;4.95;;;2.42;;
51654;SDS011;37732;53.106;7.030;2023-07-13T11:28:54;4.28;;;2.65;;
51654;SDS011;37732;53.106;7.030;2023-07-13T11:31:20;8.88;;;2.88;;
51654;SDS011;37732;53.106;7.030;2023-07-13T11:33:50;4.80;;;2.63;;
51654;SDS011;37732;53.106;7.030;2023-07-13T11:36:29;5.07;;;2.88;;
51654;SDS011;37732;53.106;7.030;2023-07-13T11:41:23;6.50;;;2.60;;
51654;SDS011;37732;53.106;7.030;2023-07-13T11:43:53;4.82;;;2.80;;
51654;SDS011;37732;53.106;7.030;2023-07-13T11:46:20;3.40;;;2.40;;
51654;SDS011;37732;53.106;7.030;2023-07-13T11:48:47;4.53;;;2.38;;
51654;SDS011;37732;53.106;7.030;2023-07-13T11:51:18;4.45;;;2.42;;
51654;SDS011;37732;53.106;7.030;2023-07-13T11:53:46;5.50;;;2.47;;
51654;SDS011;37732;53.106;7.030;2023-07-13T11:56:13;4.22;;;2.20;;
51654;SDS011;37732;53.106;7.030;2023-07-13T11:58:39;2.92;;;2.20;;
51654;SDS011;37732;53.106;7.030;2023-07-13T12:01:06;4.68;;;2.40;;
51654;SDS011;37732;53.106;7.030;2023-07-13T12:03:33;6.43;;;3.00;;
51654;SDS011;37732;53.106;7.030;2023-07-13T12:06:00;5.60;;;3.13;;
51654;SDS011;37732;53.106;7.030;2023-07-13T12:08:27;5.35;;;3.33;;
51654;SDS011;37732;53.106;7.030;2023-07-13T12:10:58;5.10;;;2.65;;
51654;SDS011;37732;53.106;7.030;2023-07-13T12:13:26;6.88;;;3.30;;
51654;SDS011;37732;53.106;7.030;2023-07-13T12:15:53;5.32;;;3.03;;
51654;SDS011;37732;53.106;7.030;2023-07-13T12:18:21;5.65;;;3.15;;
51654;SDS011;37732;53.106;7.030;2023-07-13T12:20:48;7.55;;;3.90;;
51654;SDS011;37732;53.106;7.030;2023-07-13T12:23:37;8.82;;;3.95;;
51654;SDS011;37732;53.106;7.030;2023-07-13T12:26:03;7.25;;;3.50;;
51654;SDS011;37732;53.106;7.030;2023-07-13T12:28:37;7.18;;;3.55;;
51654;SDS011;37732;53.106;7.030;2023-07-13T12:31:04;5.10;;;3.08;;
51654;SDS011;37732;53.106;7.030;2023-07-13T12:33:31;5.38;;;3.20;;
51654;SDS011;37732;53.106;7.030;2023-07-13T12:36:00;7.05;;;3.28;;
51654;SDS011;37732;53.106;7.030;2023-07-13T12:38:27;5.03;;;3.38;;
51654;SDS011;37732;53.106;7.030;2023-07-13T12:40:53;5.25;;;4.00;;
51654;SDS011;37732;53.106;7.030;2023-07-13T12:43:20;8.65;;;3.00;;
51654;SDS011;37732;53.106;7.030;2023-07-13T12:45:57;3.92;;;1.90;;
51654;SDS011;37732;53.106;7.030;2023-07-13T12:48:24;5.45;;;2.15;;
51654;SDS011;37732;53.106;7.030;2023-07-13T12:50:50;4.65;;;2.47;;
51654;SDS011;37732;53.106;7.030;2023-07-13T12:53:20;3.50;;;2.08;;
51654;SDS011;37732;53.106;7.030;2023-07-13T12:55:47;4.47;;;2.35;;
51654;SDS011;37732;53.106;7.030;2023-07-13T12:58:36;7.97;;;2.83;;
51654;SDS011;37732;53.106;7.030;2023-07-13T13:01:01;7.82;;;2.88;;
51654;SDS011;37732;53.106;7.030;2023-07-13T13:06:05;5.18;;;2.45;;
51654;SDS011;37732;53.106;7.030;2023-07-13T13:08:35;5.30;;;2.20;;
51654;SDS011;37732;53.106;7.030;2023-07-13T13:11:02;7.30;;;2.17;;
51654;SDS011;37732;53.106;7.030;2023-07-13T13:13:28;3.60;;;2.08;;
51654;SDS011;37732;53.106;7.030;2023-07-13T13:15:54;8.40;;;2.80;;
51654;SDS011;37732;53.106;7.030;2023-07-13T13:18:22;5.78;;;2.42;;
51654;SDS011;37732;53.106;7.030;2023-07-13T13:20:48;7.78;;;2.42;;
51654;SDS011;37732;53.106;7.030;2023-07-13T13:23:16;4.50;;;2.17;;
51654;SDS011;37732;53.106;7.030;2023-07-13T13:25:46;5.32;;;2.00;;
51654;SDS011;37732;53.106;7.030;2023-07-13T13:28:17;5.57;;;2.13;;
51654;SDS011;37732;53.106;7.030;2023-07-13T13:30:44;5.40;;;2.20;;
51654;SDS011;37732;53.106;7.030;2023-07-13T13:33:12;2.85;;;1.80;;
51654;SDS011;37732;53.106;7.030;2023-07-13T13:35:39;7.53;;;3.00;;
51654;SDS011;37732;53.106;7.030;2023-07-13T13:38:25;4.40;;;2.10;;
51654;SDS011;37732;53.106;7.030;2023-07-13T13:40:51;5.75;;;1.85;;
51654;SDS011;37732;53.106;7.030;2023-07-13T13:43:18;2.15;;;1.58;;
51654;SDS011;37732;53.106;7.030;2023-07-13T13:45:45;6.43;;;2.78;;
51654;SDS011;37732;53.106;7.030;2023-07-13T13:48:19;8.35;;;2.10;;
51654;SDS011;37732;53.106;7.030;2023-07-13T13:50:47;9.05;;;2.17;;
51654;SDS011;37732;53.106;7.030;2023-07-13T13:53:13;4.15;;;1.90;;
51654;SDS011;37732;53.106;7.030;2023-07-13T13:55:40;6.40;;;2.20;;
51654;SDS011;37732;53.106;7.030;2023-07-13T13:58:09;5.20;;;1.90;;
51654;SDS011;37732;53.106;7.030;2023-07-13T14:00:38;9.38;;;2.00;;
51654;SDS011;37732;53.106;7.030;2023-07-13T14:03:05;5.20;;;2.10;;
51654;SDS011;37732;53.106;7.030;2023-07-13T14:05:32;6.05;;;2.00;;
51654;SDS011;37732;53.106;7.030;2023-07-13T14:07:58;3.58;;;1.90;;
51654;SDS011;37732;53.106;7.030;2023-07-13T14:10:24;5.90;;;2.15;;
51654;SDS011;37732;53.106;7.030;2023-07-13T14:12:53;5.28;;;1.90;;
51654;SDS011;37732;53.106;7.030;2023-07-13T14:15:27;3.42;;;2.28;;
51654;SDS011;37732;53.106;7.030;2023-07-13T14:17:56;3.63;;;2.05;;
51654;SDS011;37732;53.106;7.030;2023-07-13T14:20:23;4.13;;;1.88;;
51654;SDS011;37732;53.106;7.030;2023-07-13T14:22:50;5.13;;;2.00;;
51654;SDS011;37732;53.106;7.030;2023-07-13T14:25:16;5.47;;;2.08;;
51654;SDS011;37732;53.106;7.030;2023-07-13T14:27:44;5.28;;;2.00;;
51654;SDS011;37732;53.106;7.030;2023-07-13T14:30:17;4.60;;;1.95;;
51654;SDS011;37732;53.106;7.030;2023-07-13T14:32:44;4.47;;;2.03;;
51654;SDS011;37732;53.106;7.030;2023-07-13T14:35:14;6.60;;;2.40;;
51654;SDS011;37732;53.106;7.030;2023-07-13T14:37:41;4.80;;;1.98;;
51654;SDS011;37732;53.106;7.030;2023-07-13T14:40:14;5.07;;;2.38;;
51654;SDS011;37732;53.106;7.030;2023-07-13T14:42:41;5.03;;;2.60;;
51654;SDS011;37732;53.106;7.030;2023-07-13T14:45:12;7.55;;;2.38;;
51654;SDS011;37732;53.106;7.030;2023-07-13T14:47:39;12.90;;;2.90;;
51654;SDS011;37732;53.106;7.030;2023-07-13T14:50:05;5.90;;;2.40;;
51654;SDS011;37732;53.106;7.030;2023-07-13T14:52:35;5.18;;;2.58;;
51654;SDS011;37732;53.106;7.030;2023-07-13T14:55:02;7.55;;;2.90;;
51654;SDS011;37732;53.106;7.030;2023-07-13T14:57:28;5.65;;;2.78;;
51654;SDS011;37732;53.106;7.030;2023-07-13T14:59:54;5.72;;;2.15;;
51654;SDS011;37732;53.106;7.030;2023-07-13T15:02:27;7.40;;;2.40;;
51654;SDS011;37732;53.106;7.030;2023-07-13T15:04:54;7.82;;;2.97;;
51654;SDS011;37732;53.106;7.030;2023-07-13T15:07:21;6.03;;;2.30;;
51654;SDS011;37732;53.106;7.030;2023-07-13T15:09:48;6.85;;;2.60;;
51654;SDS011;37732;53.106;7.030;2023-07-13T15:12:15;6.18;;;2.30;;
51654;SDS011;37732;53.106;7.030;2023-07-13T15:14:42;4.80;;;2.40;;